sensor_id;sensor_type;location;lat;lon;timestamp;pressure;altitude;pressure_sealevel;temperature;humidity
23261;BME280;11799;47.740;-3.390;2023-04-19T00:00:29;101788.97;;;9.24;100.00
23261;BME280;11799;47.740;-3.390;2023-04-19T00:02:55;101794.31;;;9.22;100.00
23261;BME280;11799;47.740;-3.390;2023-04-19T00:05:21;101789.06;;;9.22;100.00
23261;BME280;11799;47.740;-3.390;2023-04-19T00:07:49;101794.50;;;9.19;100.00
23261;BME280;11799;47.740;-3.390;2023-04-19T00:10:15;101786.84;;;9.15;100.00
23261;BME280;11799;47.740;-3.390;2023-04-19T00:12:41;101792.97;;;9.15;100.00
23261;BME280;11799;47.740;-3.390;2023-04-19T00:15:07;101787.78;;;9.14;100.00
23261;BME280;11799;47.740;-3.390;2023-04-19T00:17:33;101789.47;;;9.15;100.00
23261;BME280;11799;47.740;-3.390;2023-04-19T00:19:59;101785.31;;;9.11;100.00
23261;BME280;11799;47.740;-3.390;2023-04-19T00:22:25;101792.28;;;9.12;100.00
23261;BME280;11799;47.740;-3.390;2023-04-19T00:24:51;101787.28;;;9.07;100.00
23261;BME280;11799;47.740;-3.390;2023-04-19T00:27:17;101785.75;;;9.03;100.00
23261;BME280;11799;47.740;-3.390;2023-04-19T00:29:43;101787.44;;;9.04;100.00
23261;BME280;11799;47.740;-3.390;2023-04-19T00:32:09;101782.25;;;9.03;100.00
23261;BME280;11799;47.740;-3.390;2023-04-19T00:34:35;101785.66;;;9.05;100.00
23261;BME280;11799;47.740;-3.390;2023-04-19T00:37:01;101783.19;;;9.02;100.00
23261;BME280;11799;47.740;-3.390;2023-04-19T00:39:29;101784.03;;;9.02;100.00
23261;BME280;11799;47.740;-3.390;2023-04-19T00:41:55;101779.78;;;9.00;100.00
23261;BME280;11799;47.740;-3.390;2023-04-19T00:44:23;101778.25;;;8.96;100.00
23261;BME280;11799;47.740;-3.390;2023-04-19T00:46:50;101777.25;;;8.98;100.00
23261;BME280;11799;47.740;-3.390;2023-04-19T00:49:16;101777.31;;;8.97;100.00
23261;BME280;11799;47.740;-3.390;2023-04-19T00:51:42;101767.63;;;8.97;100.00
23261;BME280;11799;47.740;-3.390;2023-04-19T00:54:09;101763.56;;;8.91;100.00
23261;BME280;11799;47.740;-3.390;2023-04-19T00:56:35;101759.06;;;8.93;100.00
23261;BME280;11799;47.740;-3.390;2023-04-19T00:59:01;101760.94;;;8.91;100.00
23261;BME280;11799;47.740;-3.390;2023-04-19T01:01:27;101754.63;;;8.94;100.00
23261;BME280;11799;47.740;-3.390;2023-04-19T01:03:53;101752.00;;;8.94;100.00
23261;BME280;11799;47.740;-3.390;2023-04-19T01:06:19;101751.25;;;8.92;100.00
23261;BME280;11799;47.740;-3.390;2023-04-19T01:08:45;101751.31;;;8.90;100.00
23261;BME280;11799;47.740;-3.390;2023-04-19T01:11:11;101754.03;;;8.89;100.00
23261;BME280;11799;47.740;-3.390;2023-04-19T01:13:36;101752.19;;;8.91;100.00
23261;BME280;11799;47.740;-3.390;2023-04-19T01:16:02;101747.16;;;8.86;100.00
23261;BME280;11799;47.740;-3.390;2023-04-19T01:18:27;101743.59;;;8.87;100.00
23261;BME280;11799;47.740;-3.390;2023-04-19T01:21:00;101743.69;;;8.86;100.00
23261;BME280;11799;47.740;-3.390;2023-04-19T01:23:25;101745.38;;;8.87;100.00
23261;BME280;11799;47.740;-3.390;2023-04-19T01:25:51;101742.81;;;8.85;100.00
23261;BME280;11799;47.740;-3.390;2023-04-19T01:28:17;101736.97;;;8.80;100.00
23261;BME280;11799;47.740;-3.390;2023-04-19T01:30:42;101731.44;;;8.85;100.00
23261;BME280;11799;47.740;-3.390;2023-04-19T01:33:08;101724.47;;;8.84;100.00
23261;BME280;11799;47.740;-3.390;2023-04-19T01:35:33;101722.59;;;8.86;100.00
23261;BME280;11799;47.740;-3.390;2023-04-19T01:37:59;101722.00;;;8.81;100.00
23261;BME280;11799;47.740;-3.390;2023-04-19T01:40:25;101712.41;;;8.80;100.00
23261;BME280;11799;47.740;-3.390;2023-04-19T01:42:51;101720.31;;;8.80;100.00
23261;BME280;11799;47.740;-3.390;2023-04-19T01:45:17;101718.53;;;8.80;100.00
23261;BME280;11799;47.740;-3.390;2023-04-19T01:47:42;101708.94;;;8.79;100.00
23261;BME280;11799;47.740;-3.390;2023-04-19T01:50:08;101706.22;;;8.81;100.00
23261;BME280;11799;47.740;-3.390;2023-04-19T01:52:34;101707.16;;;8.80;100.00
23261;BME280;11799;47.740;-3.390;2023-04-19T01:55:00;101713.34;;;8.79;100.00
23261;BME280;11799;47.740;-3.390;2023-04-19T01:57:26;101704.50;;;8.80;100.00
23261;BME280;11799;47.740;-3.390;2023-04-19T01:59:52;101699.41;;;8.77;100.00
23261;BME280;11799;47.740;-3.390;2023-04-19T02:02:18;101700.25;;;8.77;100.00
23261;BME280;11799;47.740;-3.390;2023-04-19T02:04:44;101695.94;;;8.76;100.00
23261;BME280;11799;47.740;-3.390;2023-04-19T02:07:09;101692.38;;;8.77;100.00
23261;BME280;11799;47.740;-3.390;2023-04-19T02:09:36;101688.88;;;8.77;100.00
23261;BME280;11799;47.740;-3.390;2023-04-19T02:12:03;101693.31;;;8.76;100.00
23261;BME280;11799;47.740;-3.390;2023-04-19T02:14:29;101691.59;;;8.75;100.00
23261;BME280;11799;47.740;-3.390;2023-04-19T02:16:54;101693.38;;;8.75;100.00
23261;BME280;11799;47.740;-3.390;2023-04-19T02:19:20;101680.03;;;8.78;100.00
23261;BME280;11799;47.740;-3.390;2023-04-19T02:21:46;101680.22;;;8.75;100.00
23261;BME280;11799;47.740;-3.390;2023-04-19T02:24:13;101681.91;;;8.76;100.00
23261;BME280;11799;47.740;-3.390;2023-04-19T02:26:39;101680.22;;;8.75;100.00
23261;BME280;11799;47.740;-3.390;2023-04-19T02:29:05;101680.31;;;8.73;100.00
23261;BME280;11799;47.740;-3.390;2023-04-19T02:31:31;101681.06;;;8.75;100.00
23261;BME280;11799;47.740;-3.390;2023-04-19T02:33:56;101675.03;;;8.73;100.00
23261;BME280;11799;47.740;-3.390;2023-04-19T02:36:22;101669.00;;;8.71;100.00
23261;BME280;11799;47.740;-3.390;2023-04-19T02:38:47;101671.63;;;8.71;100.00
23261;BME280;11799;47.740;-3.390;2023-04-19T02:41:13;101672.50;;;8.72;100.00
23261;BME280;11799;47.740;-3.390;2023-04-19T02:43:39;101667.31;;;8.70;100.00
23261;BME280;11799;47.740;-3.390;2023-04-19T02:46:04;101668.06;;;8.72;100.00
23261;BME280;11799;47.740;-3.390;2023-04-19T02:48:30;101675.13;;;8.72;100.00
23261;BME280;11799;47.740;-3.390;2023-04-19T02:50:56;101669.00;;;8.71;100.00
23261;BME280;11799;47.740;-3.390;2023-04-19T02:53:22;101657.53;;;8.72;100.00
23261;BME280;11799;47.740;-3.390;2023-04-19T02:55:48;101662.81;;;8.72;100.00
23261;BME280;11799;47.740;-3.390;2023-04-19T02:58:17;101661.19;;;8.70;100.00
23261;BME280;11799;47.740;-3.390;2023-04-19T03:01:09;101654.16;;;8.70;100.00
23261;BME280;11799;47.740;-3.390;2023-04-19T03:03:35;101661.09;;;8.71;100.00
23261;BME280;11799;47.740;-3.390;2023-04-19T03:06:01;101654.91;;;8.72;100.00
23261;BME280;11799;47.740;-3.390;2023-04-19T03:08:28;101651.41;;;8.72;100.00
23261;BME280;11799;47.740;-3.390;2023-04-19T03:10:53;101646.31;;;8.69;100.00
23261;BME280;11799;47.740;-3.390;2023-04-19T03:13:19;101647.94;;;8.71;100.00
23261;BME280;11799;47.740;-3.390;2023-04-19T03:15:46;101656.78;;;8.70;100.00
23261;BME280;11799;47.740;-3.390;2023-04-19T03:18:12;101640.97;;;8.70;100.00
23261;BME280;11799;47.740;-3.390;2023-04-19T03:20:40;101648.69;;;8.73;100.00
23261;BME280;11799;47.740;-3.390;2023-04-19T03:23:06;101648.53;;;8.76;100.00
23261;BME280;11799;47.740;-3.390;2023-04-19T03:25:32;101646.75;;;8.77;100.00
23261;BME280;11799;47.740;-3.390;2023-04-19T03:28:11;101646.75;;;8.77;100.00
23261;BME280;11799;47.740;-3.390;2023-04-19T03:31:08;101649.28;;;8.78;100.00
23261;BME280;11799;47.740;-3.390;2023-04-19T03:33:35;101647.41;;;8.80;100.00
23261;BME280;11799;47.740;-3.390;2023-04-19T03:36:00;101643.00;;;8.81;100.00
23261;BME280;11799;47.740;-3.390;2023-04-19T03:38:27;101643.84;;;8.81;100.00
23261;BME280;11799;47.740;-3.390;2023-04-19T03:40:53;101652.50;;;8.83;100.00
23261;BME280;11799;47.740;-3.390;2023-04-19T03:43:20;101645.47;;;8.84;100.00
23261;BME280;11799;47.740;-3.390;2023-04-19T03:45:47;101641.13;;;8.83;100.00
23261;BME280;11799;47.740;-3.390;2023-04-19T03:48:12;101654.03;;;8.87;100.00
23261;BME280;11799;47.740;-3.390;2023-04-19T03:50:38;101648.78;;;8.87;100.00
23261;BME280;11799;47.740;-3.390;2023-04-19T03:53:04;101652.25;;;8.88;100.00
23261;BME280;11799;47.740;-3.390;2023-04-19T03:55:30;101653.09;;;8.88;100.00
23261;BME280;11799;47.740;-3.390;2023-04-19T03:57:57;101648.78;;;8.87;100.00
23261;BME280;11799;47.740;-3.390;2023-04-19T04:00:35;101641.72;;;8.88;100.00
23261;BME280;11799;47.740;-3.390;2023-04-19T04:03:01;101636.72;;;8.83;100.00
23261;BME280;11799;47.740;-3.390;2023-04-19T04:05:27;101637.47;;;8.85;100.00
23261;BME280;11799;47.740;-3.390;2023-04-19T04:07:53;101644.63;;;8.83;100.00
23261;BME280;11799;47.740;-3.390;2023-04-19T04:10:19;101641.03;;;8.84;100.00
23261;BME280;11799;47.740;-3.390;2023-04-19T04:12:45;101632.38;;;8.82;100.00
23261;BME280;11799;47.740;-3.390;2023-04-19T04:15:17;101640.38;;;8.81;100.00
23261;BME280;11799;47.740;-3.390;2023-04-19T04:17:47;101635.94;;;8.81;100.00
23261;BME280;11799;47.740;-3.390;2023-04-19T04:20:13;101634.16;;;8.82;100.00
23261;BME280;11799;47.740;-3.390;2023-04-19T04:22:44;101643.75;;;8.83;100.00
23261;BME280;11799;47.740;-3.390;2023-04-19T04:25:15;101638.50;;;8.83;100.00
23261;BME280;11799;47.740;-3.390;2023-04-19T04:27:41;101634.94;;;8.84;100.00
23261;BME280;11799;47.740;-3.390;2023-04-19T04:30:12;101634.94;;;8.84;100.00
23261;BME280;11799;47.740;-3.390;2023-04-19T04:32:38;101633.91;;;8.86;100.00
23261;BME280;11799;47.740;-3.390;2023-04-19T04:35:06;101632.13;;;8.87;100.00
23261;BME280;11799;47.740;-3.390;2023-04-19T04:37:48;101634.75;;;8.87;100.00
23261;BME280;11799;47.740;-3.390;2023-04-19T04:40:14;101630.25;;;8.89;100.00
23261;BME280;11799;47.740;-3.390;2023-04-19T04:42:40;101626.75;;;8.88;100.00
23261;BME280;11799;47.740;-3.390;2023-04-19T04:45:06;101631.00;;;8.91;100.00
23261;BME280;11799;47.740;-3.390;2023-04-19T04:47:34;101627.44;;;8.92;100.00
23261;BME280;11799;47.740;-3.390;2023-04-19T04:50:03;101626.59;;;8.91;100.00
23261;BME280;11799;47.740;-3.390;2023-04-19T04:52:29;101631.00;;;8.91;100.00
23261;BME280;11799;47.740;-3.390;2023-04-19T04:55:10;101624.88;;;8.90;100.00
23261;BME280;11799;47.740;-3.390;2023-04-19T04:57:41;101627.53;;;8.90;100.00
23261;BME280;11799;47.740;-3.390;2023-04-19T05:00:11;101630.16;;;8.90;100.00
23261;BME280;11799;47.740;-3.390;2023-04-19T05:02:44;101630.06;;;8.92;100.00
23261;BME280;11799;47.740;-3.390;2023-04-19T05:05:10;101634.47;;;8.91;100.00
23261;BME280;11799;47.740;-3.390;2023-04-19T05:07:36;101631.94;;;8.90;100.00
23261;BME280;11799;47.740;-3.390;2023-04-19T05:10:02;101633.72;;;8.89;100.00
23261;BME280;11799;47.740;-3.390;2023-04-19T05:12:36;101634.56;;;8.90;100.00
23261;BME280;11799;47.740;-3.390;2023-04-19T05:15:01;101634.56;;;8.90;100.00
23261;BME280;11799;47.740;-3.390;2023-04-19T05:17:27;101637.22;;;8.90;100.00
23261;BME280;11799;47.740;-3.390;2023-04-19T05:19:53;101636.44;;;8.88;100.00
23261;BME280;11799;47.740;-3.390;2023-04-19T05:22:18;101643.31;;;8.90;100.00
23261;BME280;11799;47.740;-3.390;2023-04-19T05:24:45;101630.16;;;8.90;100.00
23261;BME280;11799;47.740;-3.390;2023-04-19T05:27:12;101634.56;;;8.90;100.00
23261;BME280;11799;47.740;-3.390;2023-04-19T05:29:37;101636.34;;;8.89;100.00
23261;BME280;11799;47.740;-3.390;2023-04-19T05:32:04;101631.84;;;8.91;100.00
23261;BME280;11799;47.740;-3.390;2023-04-19T05:34:34;101633.53;;;8.92;100.00
23261;BME280;11799;47.740;-3.390;2023-04-19T05:37:02;101633.38;;;8.96;100.00
23261;BME280;11799;47.740;-3.390;2023-04-19T05:39:28;101636.00;;;8.96;100.00
23261;BME280;11799;47.740;-3.390;2023-04-19T05:41:53;101634.22;;;8.96;100.00
23261;BME280;11799;47.740;-3.390;2023-04-19T05:44:19;101624.53;;;8.97;100.00
23261;BME280;11799;47.740;-3.390;2023-04-19T05:46:44;101635.75;;;9.00;100.00
23261;BME280;11799;47.740;-3.390;2023-04-19T05:49:13;101630.28;;;9.03;100.00
23261;BME280;11799;47.740;-3.390;2023-04-19T05:52:01;101621.44;;;9.04;100.00
23261;BME280;11799;47.740;-3.390;2023-04-19T05:54:38;101624.66;;;9.09;100.00
23261;BME280;11799;47.740;-3.390;2023-04-19T05:57:04;101626.44;;;9.09;100.00
23261;BME280;11799;47.740;-3.390;2023-04-19T05:59:30;101634.28;;;9.10;100.00
23261;BME280;11799;47.740;-3.390;2023-04-19T06:01:55;101625.34;;;9.13;100.00
23261;BME280;11799;47.740;-3.390;2023-04-19T06:04:21;101622.63;;;9.14;100.00
23261;BME280;11799;47.740;-3.390;2023-04-19T06:06:47;101616.31;;;9.17;100.00
23261;BME280;11799;47.740;-3.390;2023-04-19T06:09:14;101620.66;;;9.18;100.00
23261;BME280;11799;47.740;-3.390;2023-04-19T06:11:40;101623.00;;;9.22;100.00
23261;BME280;11799;47.740;-3.390;2023-04-19T06:14:07;101621.94;;;9.25;100.00
23261;BME280;11799;47.740;-3.390;2023-04-19T06:16:32;101618.38;;;9.26;100.00
23261;BME280;11799;47.740;-3.390;2023-04-19T06:18:59;101626.09;;;9.29;100.00
23261;BME280;11799;47.740;-3.390;2023-04-19T06:21:25;101623.19;;;9.34;100.00
23261;BME280;11799;47.740;-3.390;2023-04-19T06:23:51;101623.94;;;9.36;100.00
23261;BME280;11799;47.740;-3.390;2023-04-19T06:26:17;101621.88;;;9.41;100.00
23261;BME280;11799;47.740;-3.390;2023-04-19T06:28:42;101622.53;;;9.44;100.00
23261;BME280;11799;47.740;-3.390;2023-04-19T06:31:08;101613.50;;;9.48;100.00
23261;BME280;11799;47.740;-3.390;2023-04-19T06:33:33;101614.09;;;9.53;100.00
23261;BME280;11799;47.740;-3.390;2023-04-19T06:35:59;101620.88;;;9.57;100.00
23261;BME280;11799;47.740;-3.390;2023-04-19T06:38:24;101619.66;;;9.63;100.00
23261;BME280;11799;47.740;-3.390;2023-04-19T06:40:50;101615.88;;;9.67;100.00
23261;BME280;11799;47.740;-3.390;2023-04-19T06:43:15;101616.44;;;9.72;100.00
23261;BME280;11799;47.740;-3.390;2023-04-19T06:45:41;101618.72;;;9.78;100.00
23261;BME280;11799;47.740;-3.390;2023-04-19T06:48:06;101616.72;;;9.82;100.00
23261;BME280;11799;47.740;-3.390;2023-04-19T06:50:32;101618.22;;;9.86;100.00
23261;BME280;11799;47.740;-3.390;2023-04-19T06:52:57;101615.28;;;9.90;100.00
23261;BME280;11799;47.740;-3.390;2023-04-19T06:55:23;101615.75;;;9.97;100.00
23261;BME280;11799;47.740;-3.390;2023-04-19T06:57:48;101612.72;;;10.03;100.00
23261;BME280;11799;47.740;-3.390;2023-04-19T07:00:14;101613.38;;;10.07;100.00
23261;BME280;11799;47.740;-3.390;2023-04-19T07:02:40;101609.41;;;10.14;100.00
23261;BME280;11799;47.740;-3.390;2023-04-19T07:05:06;101611.72;;;10.20;100.00
23261;BME280;11799;47.740;-3.390;2023-04-19T07:07:32;101608.69;;;10.26;100.00
23261;BME280;11799;47.740;-3.390;2023-04-19T07:09:57;101609.97;;;10.33;100.00
23261;BME280;11799;47.740;-3.390;2023-04-19T07:12:23;101606.94;;;10.39;100.00
23261;BME280;11799;47.740;-3.390;2023-04-19T07:14:49;101606.53;;;10.45;100.00
23261;BME280;11799;47.740;-3.390;2023-04-19T07:17:21;101606.97;;;10.52;100.00
23261;BME280;11799;47.740;-3.390;2023-04-19T07:19:47;101611.84;;;10.58;100.00
23261;BME280;11799;47.740;-3.390;2023-04-19T07:22:15;101605.97;;;10.67;100.00
23261;BME280;11799;47.740;-3.390;2023-04-19T07:24:41;101612.34;;;10.77;100.00
23261;BME280;11799;47.740;-3.390;2023-04-19T07:27:08;101608.06;;;10.89;100.00
23261;BME280;11799;47.740;-3.390;2023-04-19T07:29:34;101601.72;;;11.04;100.00
23261;BME280;11799;47.740;-3.390;2023-04-19T07:32:01;101609.56;;;11.18;100.00
23261;BME280;11799;47.740;-3.390;2023-04-19T07:34:26;101604.19;;;11.33;100.00
23261;BME280;11799;47.740;-3.390;2023-04-19T07:36:52;101608.44;;;11.48;100.00
23261;BME280;11799;47.740;-3.390;2023-04-19T07:39:18;101602.06;;;11.63;100.00
23261;BME280;11799;47.740;-3.390;2023-04-19T07:41:43;101590.53;;;11.77;100.00
23261;BME280;11799;47.740;-3.390;2023-04-19T07:44:09;101601.53;;;11.96;100.00
23261;BME280;11799;47.740;-3.390;2023-04-19T07:46:36;101598.75;;;12.10;100.00
23261;BME280;11799;47.740;-3.390;2023-04-19T07:49:02;101589.56;;;12.27;100.00
23261;BME280;11799;47.740;-3.390;2023-04-19T07:51:27;101591.31;;;12.39;100.00
23261;BME280;11799;47.740;-3.390;2023-04-19T07:53:53;101594.53;;;12.55;100.00
23261;BME280;11799;47.740;-3.390;2023-04-19T07:56:18;101592.66;;;12.69;100.00
23261;BME280;11799;47.740;-3.390;2023-04-19T07:58:44;101591.97;;;12.78;100.00
23261;BME280;11799;47.740;-3.390;2023-04-19T08:01:10;101585.97;;;12.87;100.00
23261;BME280;11799;47.740;-3.390;2023-04-19T08:03:36;101586.97;;;12.97;100.00
23261;BME280;11799;47.740;-3.390;2023-04-19T08:06:05;101593.66;;;13.14;100.00
23261;BME280;11799;47.740;-3.390;2023-04-19T08:08:37;101595.41;;;13.26;100.00
23261;BME280;11799;47.740;-3.390;2023-04-19T08:11:03;101592.84;;;13.36;100.00
23261;BME280;11799;47.740;-3.390;2023-04-19T08:13:29;101589.25;;;13.48;100.00
23261;BME280;11799;47.740;-3.390;2023-04-19T08:15:55;101584.91;;;13.58;100.00
23261;BME280;11799;47.740;-3.390;2023-04-19T08:18:21;101593.00;;;13.68;100.00
23261;BME280;11799;47.740;-3.390;2023-04-19T08:20:46;101588.78;;;13.76;100.00
23261;BME280;11799;47.740;-3.390;2023-04-19T08:23:13;101592.78;;;13.82;100.00
23261;BME280;11799;47.740;-3.390;2023-04-19T08:25:38;101592.13;;;13.89;100.00
23261;BME280;11799;47.740;-3.390;2023-04-19T08:28:04;101592.63;;;13.95;100.00
23261;BME280;11799;47.740;-3.390;2023-04-19T08:30:30;101590.44;;;14.00;100.00
23261;BME280;11799;47.740;-3.390;2023-04-19T08:32:55;101588.63;;;14.00;100.00
23261;BME280;11799;47.740;-3.390;2023-04-19T08:35:21;101590.91;;;14.05;100.00
23261;BME280;11799;47.740;-3.390;2023-04-19T08:37:47;101585.97;;;14.11;100.00
23261;BME280;11799;47.740;-3.390;2023-04-19T08:40:14;101581.25;;;14.15;100.00
23261;BME280;11799;47.740;-3.390;2023-04-19T08:42:44;101587.25;;;14.28;100.00
23261;BME280;11799;47.740;-3.390;2023-04-19T08:45:10;101577.34;;;14.30;100.00
23261;BME280;11799;47.740;-3.390;2023-04-19T08:47:40;101564.78;;;14.32;100.00
23261;BME280;11799;47.740;-3.390;2023-04-19T08:50:07;101571.41;;;14.38;100.00
23261;BME280;11799;47.740;-3.390;2023-04-19T08:52:34;101566.31;;;14.46;100.00
23261;BME280;11799;47.740;-3.390;2023-04-19T08:55:04;101556.53;;;14.46;100.00
23261;BME280;11799;47.740;-3.390;2023-04-19T08:57:31;101563.28;;;14.50;100.00
23261;BME280;11799;47.740;-3.390;2023-04-19T08:59:58;101553.97;;;14.56;100.00
23261;BME280;11799;47.740;-3.390;2023-04-19T09:02:24;101565.66;;;14.65;100.00
23261;BME280;11799;47.740;-3.390;2023-04-19T09:04:49;101556.44;;;14.69;100.00
23261;BME280;11799;47.740;-3.390;2023-04-19T09:07:25;101557.50;;;14.77;100.00
23261;BME280;11799;47.740;-3.390;2023-04-19T09:12:31;101554.47;;;14.82;100.00
23261;BME280;11799;47.740;-3.390;2023-04-19T09:14:57;101566.97;;;14.91;100.00
23261;BME280;11799;47.740;-3.390;2023-04-19T09:17:22;101565.88;;;14.94;100.00
23261;BME280;11799;47.740;-3.390;2023-04-19T09:19:48;101558.03;;;14.92;100.00
23261;BME280;11799;47.740;-3.390;2023-04-19T09:22:14;101555.97;;;14.96;100.00
23261;BME280;11799;47.740;-3.390;2023-04-19T09:24:40;101563.41;;;15.02;100.00
23261;BME280;11799;47.740;-3.390;2023-04-19T09:27:05;101555.72;;;15.08;100.00
23261;BME280;11799;47.740;-3.390;2023-04-19T09:29:31;101557.03;;;15.14;100.00
23261;BME280;11799;47.740;-3.390;2023-04-19T09:31:57;101550.34;;;15.19;100.00
23261;BME280;11799;47.740;-3.390;2023-04-19T09:34:23;101554.88;;;15.29;100.00
23261;BME280;11799;47.740;-3.390;2023-04-19T09:36:49;101543.72;;;15.35;100.00
23261;BME280;11799;47.740;-3.390;2023-04-19T09:39:35;101540.78;;;15.38;100.00
23261;BME280;11799;47.740;-3.390;2023-04-19T09:42:01;101542.38;;;15.50;100.00
23261;BME280;11799;47.740;-3.390;2023-04-19T09:44:26;101539.31;;;15.55;100.00
23261;BME280;11799;47.740;-3.390;2023-04-19T09:46:52;101538.78;;;15.61;100.00
23261;BME280;11799;47.740;-3.390;2023-04-19T09:49:21;101538.69;;;15.72;100.00
23261;BME280;11799;47.740;-3.390;2023-04-19T09:51:53;101532.00;;;15.77;100.00
23261;BME280;11799;47.740;-3.390;2023-04-19T09:54:21;101530.34;;;15.86;100.00
23261;BME280;11799;47.740;-3.390;2023-04-19T09:56:48;101523.47;;;15.93;94.51
23261;BME280;11799;47.740;-3.390;2023-04-19T09:59:15;101533.19;;;16.04;98.66
23261;BME280;11799;47.740;-3.390;2023-04-19T10:02:01;101531.78;;;16.09;93.08
23261;BME280;11799;47.740;-3.390;2023-04-19T10:04:29;101523.38;;;16.14;95.63
23261;BME280;11799;47.740;-3.390;2023-04-19T10:06:54;101518.31;;;16.21;94.72
23261;BME280;11799;47.740;-3.390;2023-04-19T10:09:21;101526.59;;;16.27;94.32
23261;BME280;11799;47.740;-3.390;2023-04-19T10:11:51;101517.06;;;16.34;94.75
23261;BME280;11799;47.740;-3.390;2023-04-19T10:14:28;101519.59;;;16.45;93.24
23261;BME280;11799;47.740;-3.390;2023-04-19T10:16:57;101511.19;;;16.50;85.55
23261;BME280;11799;47.740;-3.390;2023-04-19T10:19:23;101503.31;;;16.58;85.02
23261;BME280;11799;47.740;-3.390;2023-04-19T10:21:49;101514.69;;;16.60;92.44
23261;BME280;11799;47.740;-3.390;2023-04-19T10:24:16;101504.59;;;16.64;89.27
23261;BME280;11799;47.740;-3.390;2023-04-19T10:30:04;101504.47;;;16.75;86.01
23261;BME280;11799;47.740;-3.390;2023-04-19T10:32:43;101500.66;;;16.77;88.19
23261;BME280;11799;47.740;-3.390;2023-04-19T10:35:22;101495.16;;;16.79;82.33
23261;BME280;11799;47.740;-3.390;2023-04-19T10:38:07;101496.72;;;16.81;89.74
23261;BME280;11799;47.740;-3.390;2023-04-19T10:40:53;101490.50;;;16.91;86.12
23261;BME280;11799;47.740;-3.390;2023-04-19T10:43:22;101496.84;;;16.90;90.25
23261;BME280;11799;47.740;-3.390;2023-04-19T10:45:48;101495.00;;;16.90;87.56
23261;BME280;11799;47.740;-3.390;2023-04-19T10:51:14;101494.56;;;16.95;79.45
23261;BME280;11799;47.740;-3.390;2023-04-19T10:53:46;101498.94;;;16.96;79.85
23261;BME280;11799;47.740;-3.390;2023-04-19T10:56:13;101493.84;;;17.02;83.05
23261;BME280;11799;47.740;-3.390;2023-04-19T11:04:09;101487.06;;;17.17;82.48
23261;BME280;11799;47.740;-3.390;2023-04-19T11:06:36;101485.09;;;17.20;83.51
23261;BME280;11799;47.740;-3.390;2023-04-19T11:09:01;101477.91;;;17.30;81.55
23261;BME280;11799;47.740;-3.390;2023-04-19T11:11:33;101487.59;;;17.31;77.09
23261;BME280;11799;47.740;-3.390;2023-04-19T11:14:02;101480.09;;;17.34;74.44
23261;BME280;11799;47.740;-3.390;2023-04-19T11:16:31;101478.59;;;17.32;75.08
23261;BME280;11799;47.740;-3.390;2023-04-19T11:18:56;101475.94;;;17.32;64.75
23261;BME280;11799;47.740;-3.390;2023-04-19T11:21:22;101479.09;;;17.35;67.12
23261;BME280;11799;47.740;-3.390;2023-04-19T11:23:48;101468.44;;;17.35;72.15
23261;BME280;11799;47.740;-3.390;2023-04-19T11:26:14;101472.94;;;17.35;65.99
23261;BME280;11799;47.740;-3.390;2023-04-19T11:28:40;101468.44;;;17.35;71.72
23261;BME280;11799;47.740;-3.390;2023-04-19T11:31:06;101462.25;;;17.35;66.28
23261;BME280;11799;47.740;-3.390;2023-04-19T11:33:35;101452.28;;;17.37;73.87
23261;BME280;11799;47.740;-3.390;2023-04-19T11:36:02;101474.03;;;17.42;66.21
23261;BME280;11799;47.740;-3.390;2023-04-19T11:38:31;101469.41;;;17.34;64.85
23261;BME280;11799;47.740;-3.390;2023-04-19T11:41:01;101468.44;;;17.35;66.41
23261;BME280;11799;47.740;-3.390;2023-04-19T11:43:33;101456.88;;;17.44;66.54
23261;BME280;11799;47.740;-3.390;2023-04-19T11:46:07;101451.38;;;17.46;67.93
23261;BME280;11799;47.740;-3.390;2023-04-19T11:48:33;101453.59;;;17.50;66.28
23261;BME280;11799;47.740;-3.390;2023-04-19T11:50:59;101439.97;;;17.54;70.45
23261;BME280;11799;47.740;-3.390;2023-04-19T11:53:26;101436.41;;;17.63;69.09
23261;BME280;11799;47.740;-3.390;2023-04-19T11:55:52;101441.09;;;17.78;70.70
23261;BME280;11799;47.740;-3.390;2023-04-19T12:00:55;101440.97;;;17.80;63.65
23261;BME280;11799;47.740;-3.390;2023-04-19T12:03:24;101432.09;;;17.79;64.21
23261;BME280;11799;47.740;-3.390;2023-04-19T12:05:56;101437.69;;;17.86;65.04
23261;BME280;11799;47.740;-3.390;2023-04-19T12:08:33;101435.75;;;17.96;62.50
23261;BME280;11799;47.740;-3.390;2023-04-19T12:10:58;101433.22;;;17.95;58.71
23261;BME280;11799;47.740;-3.390;2023-04-19T12:13:24;101430.72;;;18.11;59.28
23261;BME280;11799;47.740;-3.390;2023-04-19T12:15:50;101424.91;;;18.15;57.53
23261;BME280;11799;47.740;-3.390;2023-04-19T12:18:16;101423.63;;;18.20;54.54
23261;BME280;11799;47.740;-3.390;2023-04-19T12:20:46;101416.03;;;18.33;60.10
23261;BME280;11799;47.740;-3.390;2023-04-19T12:23:13;101418.25;;;18.37;60.58
23261;BME280;11799;47.740;-3.390;2023-04-19T12:25:41;101412.13;;;18.45;58.35
23261;BME280;11799;47.740;-3.390;2023-04-19T12:28:07;101406.13;;;18.51;58.68
23261;BME280;11799;47.740;-3.390;2023-04-19T12:30:34;101408.75;;;18.61;60.36
23261;BME280;11799;47.740;-3.390;2023-04-19T12:33:00;101407.31;;;18.74;54.63
23261;BME280;11799;47.740;-3.390;2023-04-19T12:35:27;101402.34;;;18.79;52.04
23261;BME280;11799;47.740;-3.390;2023-04-19T12:37:55;101404.84;;;18.81;57.84
23261;BME280;11799;47.740;-3.390;2023-04-19T12:40:22;101408.00;;;19.02;47.57
23261;BME280;11799;47.740;-3.390;2023-04-19T12:42:48;101411.19;;;19.06;48.09
23261;BME280;11799;47.740;-3.390;2023-04-19T12:45:14;101409.72;;;19.20;51.37
23261;BME280;11799;47.740;-3.390;2023-04-19T12:47:41;101408.59;;;19.30;46.16
23261;BME280;11799;47.740;-3.390;2023-04-19T12:50:08;101405.63;;;19.41;45.93
23261;BME280;11799;47.740;-3.390;2023-04-19T12:52:34;101410.28;;;19.39;45.31
23261;BME280;11799;47.740;-3.390;2023-04-19T12:54:59;101403.47;;;19.45;44.32